sensor_id;sensor_type;location;lat;lon;timestamp;P1;durP1;ratioP1;P2;durP2;ratioP2
41861;SDS011;27537;57.134;-2.136;2023-05-24T00:00:44;8.13;;;2.45;;
41861;SDS011;27537;57.134;-2.136;2023-05-24T00:03:12;7.53;;;2.30;;
41861;SDS011;27537;57.134;-2.136;2023-05-24T00:05:40;6.28;;;1.70;;
41861;SDS011;27537;57.134;-2.136;2023-05-24T00:08:08;7.20;;;2.15;;
41861;SDS011;27537;57.134;-2.136;2023-05-24T00:10:34;7.07;;;2.08;;
41861;SDS011;27537;57.134;-2.136;2023-05-24T00:13:03;6.43;;;2.00;;
41861;SDS011;27537;57.134;-2.136;2023-05-24T00:15:31;6.25;;;2.10;;
41861;SDS011;27537;57.134;-2.136;2023-05-24T00:17:59;9.02;;;2.30;;
41861;SDS011;27537;57.134;-2.136;2023-05-24T00:20:26;6.95;;;2.00;;
41861;SDS011;27537;57.134;-2.136;2023-05-24T00:22:53;5.65;;;1.60;;
41861;SDS011;27537;57.134;-2.136;2023-05-24T00:25:20;4.45;;;1.60;;
41861;SDS011;27537;57.134;-2.136;2023-05-24T00:27:47;4.68;;;1.60;;
41861;SDS011;27537;57.134;-2.136;2023-05-24T00:30:13;7.15;;;1.95;;
41861;SDS011;27537;57.134;-2.136;2023-05-24T00:32:42;4.18;;;1.65;;
41861;SDS011;27537;57.134;-2.136;2023-05-24T00:35:11;6.57;;;1.85;;
41861;SDS011;27537;57.134;-2.136;2023-05-24T00:37:39;6.60;;;1.85;;
41861;SDS011;27537;57.134;-2.136;2023-05-24T00:40:11;5.60;;;1.95;;
41861;SDS011;27537;57.134;-2.136;2023-05-24T00:42:39;7.18;;;2.03;;
41861;SDS011;27537;57.134;-2.136;2023-05-24T00:45:07;6.03;;;1.77;;
41861;SDS011;27537;57.134;-2.136;2023-05-24T00:47:35;6.10;;;1.70;;
41861;SDS011;27537;57.134;-2.136;2023-05-24T00:50:02;8.10;;;1.60;;
41861;SDS011;27537;57.134;-2.136;2023-05-24T00:52:30;5.88;;;2.05;;
41861;SDS011;27537;57.134;-2.136;2023-05-24T00:54:57;8.27;;;1.83;;
41861;SDS011;27537;57.134;-2.136;2023-05-24T00:57:25;6.60;;;1.60;;
41861;SDS011;27537;57.134;-2.136;2023-05-24T00:59:52;3.80;;;1.60;;
41861;SDS011;27537;57.134;-2.136;2023-05-24T01:02:21;5.18;;;1.75;;
41861;SDS011;27537;57.134;-2.136;2023-05-24T01:04:51;6.93;;;2.50;;
41861;SDS011;27537;57.134;-2.136;2023-05-24T01:13:26;6.45;;;1.90;;
41861;SDS011;27537;57.134;-2.136;2023-05-24T01:16:18;7.82;;;2.40;;
41861;SDS011;27537;57.134;-2.136;2023-05-24T01:18:56;6.28;;;2.17;;
41861;SDS011;27537;57.134;-2.136;2023-05-24T01:27:07;12.88;;;2.40;;
41861;SDS011;27537;57.134;-2.136;2023-05-24T01:29:37;7.88;;;2.30;;
41861;SDS011;27537;57.134;-2.136;2023-05-24T01:32:04;9.25;;;2.45;;
41861;SDS011;27537;57.134;-2.136;2023-05-24T01:34:32;7.22;;;2.00;;
41861;SDS011;27537;57.134;-2.136;2023-05-24T01:36:59;5.10;;;1.80;;
41861;SDS011;27537;57.134;-2.136;2023-05-24T01:39:26;7.32;;;2.03;;
41861;SDS011;27537;57.134;-2.136;2023-05-24T01:42:03;6.38;;;2.10;;
41861;SDS011;27537;57.134;-2.136;2023-05-24T01:47:52;7.30;;;1.80;;
41861;SDS011;27537;57.134;-2.136;2023-05-24T01:50:24;7.32;;;2.25;;
41861;SDS011;27537;57.134;-2.136;2023-05-24T01:53:02;9.68;;;2.10;;
41861;SDS011;27537;57.134;-2.136;2023-05-24T01:55:32;5.95;;;1.90;;
41861;SDS011;27537;57.134;-2.136;2023-05-24T01:58:01;5.50;;;1.73;;
41861;SDS011;27537;57.134;-2.136;2023-05-24T02:00:30;7.25;;;1.83;;
41861;SDS011;27537;57.134;-2.136;2023-05-24T02:02:58;6.35;;;2.20;;
41861;SDS011;27537;57.134;-2.136;2023-05-24T02:05:25;8.45;;;2.13;;
41861;SDS011;27537;57.134;-2.136;2023-05-24T02:07:52;4.38;;;1.55;;
41861;SDS011;27537;57.134;-2.136;2023-05-24T02:10:19;6.95;;;1.90;;
41861;SDS011;27537;57.134;-2.136;2023-05-24T02:12:46;5.57;;;2.00;;
41861;SDS011;27537;57.134;-2.136;2023-05-24T02:15:12;4.72;;;1.67;;
41861;SDS011;27537;57.134;-2.136;2023-05-24T02:17:40;3.53;;;1.40;;
41861;SDS011;27537;57.134;-2.136;2023-05-24T02:20:08;5.20;;;1.63;;
41861;SDS011;27537;57.134;-2.136;2023-05-24T02:22:36;4.88;;;1.75;;
41861;SDS011;27537;57.134;-2.136;2023-05-24T02:25:05;4.15;;;1.60;;
41861;SDS011;27537;57.134;-2.136;2023-05-24T02:27:33;5.13;;;1.67;;
41861;SDS011;27537;57.134;-2.136;2023-05-24T02:30:03;6.47;;;2.00;;
41861;SDS011;27537;57.134;-2.136;2023-05-24T02:32:32;4.38;;;1.75;;
41861;SDS011;27537;57.134;-2.136;2023-05-24T02:35:00;5.22;;;1.70;;
41861;SDS011;27537;57.134;-2.136;2023-05-24T02:37:27;5.68;;;2.00;;
41861;SDS011;27537;57.134;-2.136;2023-05-24T02:39:54;5.22;;;1.52;;
41861;SDS011;27537;57.134;-2.136;2023-05-24T02:42:21;4.88;;;1.80;;
41861;SDS011;27537;57.134;-2.136;2023-05-24T02:44:48;4.47;;;1.60;;
41861;SDS011;27537;57.134;-2.136;2023-05-24T02:47:18;5.45;;;1.67;;
41861;SDS011;27537;57.134;-2.136;2023-05-24T02:49:45;5.45;;;1.63;;
41861;SDS011;27537;57.134;-2.136;2023-05-24T02:52:12;4.28;;;1.40;;
41861;SDS011;27537;57.134;-2.136;2023-05-24T02:54:39;3.97;;;1.38;;
41861;SDS011;27537;57.134;-2.136;2023-05-24T02:57:06;5.18;;;1.45;;
41861;SDS011;27537;57.134;-2.136;2023-05-24T02:59:33;4.72;;;1.70;;
41861;SDS011;27537;57.134;-2.136;2023-05-24T03:02:02;4.65;;;1.55;;
41861;SDS011;27537;57.134;-2.136;2023-05-24T03:04:29;5.15;;;1.60;;
41861;SDS011;27537;57.134;-2.136;2023-05-24T03:06:56;5.43;;;1.67;;
41861;SDS011;27537;57.134;-2.136;2023-05-24T03:09:24;4.80;;;1.90;;
41861;SDS011;27537;57.134;-2.136;2023-05-24T03:11:51;5.47;;;1.83;;
41861;SDS011;27537;57.134;-2.136;2023-05-24T03:14:20;7.97;;;1.80;;
41861;SDS011;27537;57.134;-2.136;2023-05-24T03:16:49;5.57;;;1.75;;
41861;SDS011;27537;57.134;-2.136;2023-05-24T03:19:17;4.18;;;1.35;;
41861;SDS011;27537;57.134;-2.136;2023-05-24T03:21:44;4.38;;;1.73;;
41861;SDS011;27537;57.134;-2.136;2023-05-24T03:24:11;5.90;;;1.77;;
41861;SDS011;27537;57.134;-2.136;2023-05-24T03:26:40;6.05;;;2.15;;
41861;SDS011;27537;57.134;-2.136;2023-05-24T03:29:07;5.85;;;1.33;;
41861;SDS011;27537;57.134;-2.136;2023-05-24T03:31:35;4.80;;;1.65;;
41861;SDS011;27537;57.134;-2.136;2023-05-24T03:34:02;4.38;;;1.73;;
41861;SDS011;27537;57.134;-2.136;2023-05-24T03:36:29;7.55;;;1.60;;
41861;SDS011;27537;57.134;-2.136;2023-05-24T03:38:59;5.47;;;1.88;;
41861;SDS011;27537;57.134;-2.136;2023-05-24T03:41:29;7.40;;;1.90;;
41861;SDS011;27537;57.134;-2.136;2023-05-24T03:43:56;4.88;;;1.63;;
41861;SDS011;27537;57.134;-2.136;2023-05-24T03:46:24;6.05;;;1.90;;
41861;SDS011;27537;57.134;-2.136;2023-05-24T03:48:51;10.50;;;2.22;;
41861;SDS011;27537;57.134;-2.136;2023-05-24T03:51:18;8.18;;;1.73;;
41861;SDS011;27537;57.134;-2.136;2023-05-24T03:53:46;7.97;;;2.42;;
41861;SDS011;27537;57.134;-2.136;2023-05-24T03:56:16;6.47;;;2.00;;
41861;SDS011;27537;57.134;-2.136;2023-05-24T03:58:45;6.35;;;1.95;;
41861;SDS011;27537;57.134;-2.136;2023-05-24T04:01:12;7.38;;;2.05;;
41861;SDS011;27537;57.134;-2.136;2023-05-24T04:03:57;7.47;;;2.10;;
41861;SDS011;27537;57.134;-2.136;2023-05-24T04:06:25;5.68;;;1.90;;
41861;SDS011;27537;57.134;-2.136;2023-05-24T04:08:55;7.13;;;1.88;;
41861;SDS011;27537;57.134;-2.136;2023-05-24T04:11:23;5.40;;;1.67;;
41861;SDS011;27537;57.134;-2.136;2023-05-24T04:13:54;5.25;;;2.03;;
41861;SDS011;27537;57.134;-2.136;2023-05-24T04:16:23;6.20;;;1.67;;
41861;SDS011;27537;57.134;-2.136;2023-05-24T04:18:53;5.97;;;1.75;;
41861;SDS011;27537;57.134;-2.136;2023-05-24T04:21:20;8.20;;;2.00;;
41861;SDS011;27537;57.134;-2.136;2023-05-24T04:23:48;7.13;;;1.90;;
41861;SDS011;27537;57.134;-2.136;2023-05-24T04:26:16;9.77;;;2.20;;
41861;SDS011;27537;57.134;-2.136;2023-05-24T04:28:44;8.15;;;2.08;;
41861;SDS011;27537;57.134;-2.136;2023-05-24T04:31:12;7.45;;;2.47;;
41861;SDS011;27537;57.134;-2.136;2023-05-24T04:33:39;8.07;;;2.13;;
41861;SDS011;27537;57.134;-2.136;2023-05-24T04:36:06;8.20;;;1.88;;
41861;SDS011;27537;57.134;-2.136;2023-05-24T04:38:33;11.13;;;3.30;;
41861;SDS011;27537;57.134;-2.136;2023-05-24T04:41:01;14.23;;;2.92;;
41861;SDS011;27537;57.134;-2.136;2023-05-24T04:43:28;9.85;;;2.53;;
41861;SDS011;27537;57.134;-2.136;2023-05-24T04:45:55;8.50;;;2.63;;
41861;SDS011;27537;57.134;-2.136;2023-05-24T04:48:22;9.52;;;2.50;;
41861;SDS011;27537;57.134;-2.136;2023-05-24T04:50:51;11.70;;;3.13;;
41861;SDS011;27537;57.134;-2.136;2023-05-24T04:53:19;12.02;;;2.63;;
41861;SDS011;27537;57.134;-2.136;2023-05-24T04:55:46;9.25;;;2.58;;
41861;SDS011;27537;57.134;-2.136;2023-05-24T04:58:15;8.60;;;2.65;;
41861;SDS011;27537;57.134;-2.136;2023-05-24T05:00:42;8.95;;;2.75;;
41861;SDS011;27537;57.134;-2.136;2023-05-24T05:03:10;11.30;;;2.83;;
41861;SDS011;27537;57.134;-2.136;2023-05-24T05:05:37;13.07;;;2.83;;
41861;SDS011;27537;57.134;-2.136;2023-05-24T05:08:05;9.02;;;2.45;;
41861;SDS011;27537;57.134;-2.136;2023-05-24T05:10:32;12.35;;;2.90;;
41861;SDS011;27537;57.134;-2.136;2023-05-24T05:13:01;7.80;;;2.45;;
41861;SDS011;27537;57.134;-2.136;2023-05-24T05:15:28;14.60;;;3.42;;
41861;SDS011;27537;57.134;-2.136;2023-05-24T05:17:55;12.20;;;3.10;;
41861;SDS011;27537;57.134;-2.136;2023-05-24T05:20:23;12.07;;;2.75;;
41861;SDS011;27537;57.134;-2.136;2023-05-24T05:22:50;14.20;;;3.00;;
41861;SDS011;27537;57.134;-2.136;2023-05-24T05:25:18;10.50;;;3.08;;
41861;SDS011;27537;57.134;-2.136;2023-05-24T05:27:45;11.98;;;2.80;;
41861;SDS011;27537;57.134;-2.136;2023-05-24T05:30:12;7.68;;;2.65;;
41861;SDS011;27537;57.134;-2.136;2023-05-24T05:32:40;8.52;;;2.17;;
41861;SDS011;27537;57.134;-2.136;2023-05-24T05:35:07;7.50;;;2.50;;
41861;SDS011;27537;57.134;-2.136;2023-05-24T05:37:35;7.13;;;2.53;;
41861;SDS011;27537;57.134;-2.136;2023-05-24T05:40:02;7.43;;;2.50;;
41861;SDS011;27537;57.134;-2.136;2023-05-24T05:42:30;6.30;;;2.33;;
41861;SDS011;27537;57.134;-2.136;2023-05-24T05:44:58;7.57;;;2.35;;
41861;SDS011;27537;57.134;-2.136;2023-05-24T05:47:26;6.10;;;2.25;;
41861;SDS011;27537;57.134;-2.136;2023-05-24T05:49:55;8.75;;;2.58;;
41861;SDS011;27537;57.134;-2.136;2023-05-24T05:52:22;7.38;;;2.50;;
41861;SDS011;27537;57.134;-2.136;2023-05-24T05:54:49;8.23;;;2.28;;
41861;SDS011;27537;57.134;-2.136;2023-05-24T05:57:16;6.43;;;2.00;;
41861;SDS011;27537;57.134;-2.136;2023-05-24T05:59:49;7.27;;;2.27;;
41861;SDS011;27537;57.134;-2.136;2023-05-24T06:02:16;6.80;;;2.10;;
41861;SDS011;27537;57.134;-2.136;2023-05-24T06:04:50;8.55;;;2.40;;
41861;SDS011;27537;57.134;-2.136;2023-05-24T06:07:20;6.00;;;1.92;;
41861;SDS011;27537;57.134;-2.136;2023-05-24T06:09:48;8.73;;;2.30;;
41861;SDS011;27537;57.134;-2.136;2023-05-24T06:12:15;8.38;;;2.00;;
41861;SDS011;27537;57.134;-2.136;2023-05-24T06:14:42;7.10;;;2.20;;
41861;SDS011;27537;57.134;-2.136;2023-05-24T06:17:11;6.75;;;1.92;;
41861;SDS011;27537;57.134;-2.136;2023-05-24T06:19:38;6.63;;;2.17;;
41861;SDS011;27537;57.134;-2.136;2023-05-24T06:22:05;8.55;;;2.72;;
41861;SDS011;27537;57.134;-2.136;2023-05-24T06:24:32;11.75;;;2.55;;
41861;SDS011;27537;57.134;-2.136;2023-05-24T06:27:00;6.07;;;2.05;;
41861;SDS011;27537;57.134;-2.136;2023-05-24T06:29:30;9.82;;;2.78;;
41861;SDS011;27537;57.134;-2.136;2023-05-24T06:31:57;7.00;;;2.03;;
41861;SDS011;27537;57.134;-2.136;2023-05-24T06:34:30;6.63;;;2.20;;
41861;SDS011;27537;57.134;-2.136;2023-05-24T06:37:01;6.97;;;2.22;;
41861;SDS011;27537;57.134;-2.136;2023-05-24T06:39:28;10.82;;;2.88;;
41861;SDS011;27537;57.134;-2.136;2023-05-24T06:41:56;9.32;;;2.85;;
41861;SDS011;27537;57.134;-2.136;2023-05-24T06:44:23;9.07;;;2.50;;
41861;SDS011;27537;57.134;-2.136;2023-05-24T06:47:00;9.98;;;2.80;;
41861;SDS011;27537;57.134;-2.136;2023-05-24T06:49:28;12.93;;;3.35;;
41861;SDS011;27537;57.134;-2.136;2023-05-24T06:51:55;11.63;;;2.30;;
41861;SDS011;27537;57.134;-2.136;2023-05-24T06:54:23;9.38;;;2.72;;
41861;SDS011;27537;57.134;-2.136;2023-05-24T06:56:52;9.45;;;2.85;;
41861;SDS011;27537;57.134;-2.136;2023-05-24T06:59:21;12.40;;;3.28;;
41861;SDS011;27537;57.134;-2.136;2023-05-24T07:01:49;13.93;;;3.20;;
41861;SDS011;27537;57.134;-2.136;2023-05-24T07:04:24;11.82;;;3.13;;
41861;SDS011;27537;57.134;-2.136;2023-05-24T07:06:54;10.93;;;2.67;;
41861;SDS011;27537;57.134;-2.136;2023-05-24T07:09:24;11.90;;;2.70;;
41861;SDS011;27537;57.134;-2.136;2023-05-24T07:11:55;12.55;;;2.85;;
41861;SDS011;27537;57.134;-2.136;2023-05-24T07:14:27;12.15;;;2.50;;
41861;SDS011;27537;57.134;-2.136;2023-05-24T07:16:59;9.18;;;2.10;;
41861;SDS011;27537;57.134;-2.136;2023-05-24T07:19:28;14.60;;;2.95;;
41861;SDS011;27537;57.134;-2.136;2023-05-24T07:22:00;10.10;;;3.13;;
41861;SDS011;27537;57.134;-2.136;2023-05-24T07:24:30;12.25;;;2.70;;
41861;SDS011;27537;57.134;-2.136;2023-05-24T07:26:59;10.40;;;2.53;;
41861;SDS011;27537;57.134;-2.136;2023-05-24T07:29:27;10.10;;;2.50;;
41861;SDS011;27537;57.134;-2.136;2023-05-24T07:31:56;10.57;;;2.90;;
41861;SDS011;27537;57.134;-2.136;2023-05-24T07:34:24;18.20;;;4.00;;
41861;SDS011;27537;57.134;-2.136;2023-05-24T07:36:54;15.38;;;3.65;;
41861;SDS011;27537;57.134;-2.136;2023-05-24T07:39:27;12.20;;;3.25;;
41861;SDS011;27537;57.134;-2.136;2023-05-24T07:41:56;9.68;;;2.70;;
41861;SDS011;27537;57.134;-2.136;2023-05-24T07:44:23;11.13;;;2.63;;
41861;SDS011;27537;57.134;-2.136;2023-05-24T07:46:50;10.60;;;2.92;;
41861;SDS011;27537;57.134;-2.136;2023-05-24T07:49:19;10.18;;;2.78;;
41861;SDS011;27537;57.134;-2.136;2023-05-24T07:51:48;13.98;;;3.50;;
41861;SDS011;27537;57.134;-2.136;2023-05-24T07:54:17;12.13;;;3.28;;
41861;SDS011;27537;57.134;-2.136;2023-05-24T07:56:44;9.77;;;2.63;;
41861;SDS011;27537;57.134;-2.136;2023-05-24T07:59:11;15.25;;;2.80;;
41861;SDS011;27537;57.134;-2.136;2023-05-24T08:01:39;9.55;;;2.72;;
41861;SDS011;27537;57.134;-2.136;2023-05-24T08:04:08;10.98;;;2.72;;
41861;SDS011;27537;57.134;-2.136;2023-05-24T08:06:35;14.63;;;3.03;;
41861;SDS011;27537;57.134;-2.136;2023-05-24T08:09:03;10.70;;;2.83;;
41861;SDS011;27537;57.134;-2.136;2023-05-24T08:11:31;17.40;;;3.80;;
41861;SDS011;27537;57.134;-2.136;2023-05-24T08:13:58;12.40;;;2.65;;
41861;SDS011;27537;57.134;-2.136;2023-05-24T08:16:25;11.38;;;2.80;;
41861;SDS011;27537;57.134;-2.136;2023-05-24T08:18:54;10.73;;;2.25;;
41861;SDS011;27537;57.134;-2.136;2023-05-24T08:21:22;8.65;;;2.15;;
41861;SDS011;27537;57.134;-2.136;2023-05-24T08:23:49;11.52;;;2.75;;
41861;SDS011;27537;57.134;-2.136;2023-05-24T08:26:17;11.70;;;2.25;;
41861;SDS011;27537;57.134;-2.136;2023-05-24T08:28:47;10.13;;;2.30;;
41861;SDS011;27537;57.134;-2.136;2023-05-24T08:31:15;11.75;;;2.63;;
41861;SDS011;27537;57.134;-2.136;2023-05-24T08:33:43;8.95;;;2.20;;
41861;SDS011;27537;57.134;-2.136;2023-05-24T08:36:09;9.48;;;2.22;;
41861;SDS011;27537;57.134;-2.136;2023-05-24T08:38:36;8.82;;;2.78;;
41861;SDS011;27537;57.134;-2.136;2023-05-24T08:41:04;7.65;;;2.00;;
41861;SDS011;27537;57.134;-2.136;2023-05-24T08:43:32;13.45;;;2.42;;
41861;SDS011;27537;57.134;-2.136;2023-05-24T08:46:00;7.70;;;1.70;;
41861;SDS011;27537;57.134;-2.136;2023-05-24T08:48:29;9.73;;;1.50;;
41861;SDS011;27537;57.134;-2.136;2023-05-24T08:50:57;8.73;;;2.00;;
41861;SDS011;27537;57.134;-2.136;2023-05-24T08:53:25;5.93;;;1.60;;
41861;SDS011;27537;57.134;-2.136;2023-05-24T08:55:52;6.13;;;1.42;;
41861;SDS011;27537;57.134;-2.136;2023-05-24T08:58:21;4.32;;;1.15;;
41861;SDS011;27537;57.134;-2.136;2023-05-24T09:00:48;6.78;;;1.52;;
41861;SDS011;27537;57.134;-2.136;2023-05-24T09:03:15;7.35;;;1.60;;
41861;SDS011;27537;57.134;-2.136;2023-05-24T09:05:43;8.07;;;1.63;;
41861;SDS011;27537;57.134;-2.136;2023-05-24T09:08:11;6.28;;;1.30;;
41861;SDS011;27537;57.134;-2.136;2023-05-24T09:10:43;5.82;;;1.55;;
41861;SDS011;27537;57.134;-2.136;2023-05-24T09:13:17;5.47;;;1.20;;
41861;SDS011;27537;57.134;-2.136;2023-05-24T09:15:45;5.82;;;1.40;;
41861;SDS011;27537;57.134;-2.136;2023-05-24T09:18:12;5.47;;;1.42;;
41861;SDS011;27537;57.134;-2.136;2023-05-24T09:20:39;5.15;;;1.40;;
41861;SDS011;27537;57.134;-2.136;2023-05-24T09:23:06;4.45;;;1.25;;
41861;SDS011;27537;57.134;-2.136;2023-05-24T09:25:34;5.45;;;1.17;;
41861;SDS011;27537;57.134;-2.136;2023-05-24T09:28:04;7.28;;;1.40;;
41861;SDS011;27537;57.134;-2.136;2023-05-24T09:30:34;4.60;;;1.13;;
41861;SDS011;27537;57.134;-2.136;2023-05-24T09:33:02;4.45;;;1.10;;
41861;SDS011;27537;57.134;-2.136;2023-05-24T09:35:31;7.05;;;1.50;;
41861;SDS011;27537;57.134;-2.136;2023-05-24T09:37:58;5.03;;;1.35;;
41861;SDS011;27537;57.134;-2.136;2023-05-24T09:43:01;5.32;;;1.20;;
41861;SDS011;27537;57.134;-2.136;2023-05-24T09:45:32;7.78;;;1.70;;
41861;SDS011;27537;57.134;-2.136;2023-05-24T09:48:08;5.35;;;1.25;;
41861;SDS011;27537;57.134;-2.136;2023-05-24T09:50:36;4.88;;;1.20;;
41861;SDS011;27537;57.134;-2.136;2023-05-24T09:53:06;7.95;;;1.70;;
41861;SDS011;27537;57.134;-2.136;2023-05-24T09:55:35;4.03;;;1.20;;
41861;SDS011;27537;57.134;-2.136;2023-05-24T09:58:05;4.43;;;1.30;;
41861;SDS011;27537;57.134;-2.136;2023-05-24T10:00:37;6.38;;;1.40;;
41861;SDS011;27537;57.134;-2.136;2023-05-24T10:03:08;3.55;;;1.13;;
41861;SDS011;27537;57.134;-2.136;2023-05-24T10:05:42;4.85;;;1.25;;
41861;SDS011;27537;57.134;-2.136;2023-05-24T10:08:13;7.05;;;1.58;;
41861;SDS011;27537;57.134;-2.136;2023-05-24T10:10:41;5.75;;;1.20;;
41861;SDS011;27537;57.134;-2.136;2023-05-24T10:13:09;6.18;;;1.60;;
41861;SDS011;27537;57.134;-2.136;2023-05-24T10:15:37;4.38;;;1.35;;
41861;SDS011;27537;57.134;-2.136;2023-05-24T10:18:04;6.07;;;1.50;;
41861;SDS011;27537;57.134;-2.136;2023-05-24T10:20:38;5.70;;;1.58;;
41861;SDS011;27537;57.134;-2.136;2023-05-24T10:23:08;5.57;;;1.70;;
41861;SDS011;27537;57.134;-2.136;2023-05-24T10:25:37;6.07;;;1.50;;
41861;SDS011;27537;57.134;-2.136;2023-05-24T10:28:07;4.32;;;1.10;;
41861;SDS011;27537;57.134;-2.136;2023-05-24T10:33:20;4.15;;;1.17;;
41861;SDS011;27537;57.134;-2.136;2023-05-24T10:35:49;5.38;;;1.42;;
41861;SDS011;27537;57.134;-2.136;2023-05-24T10:38:20;5.00;;;1.30;;
41861;SDS011;27537;57.134;-2.136;2023-05-24T10:40:53;6.00;;;1.58;;
41861;SDS011;27537;57.134;-2.136;2023-05-24T10:43:20;7.65;;;1.30;;
41861;SDS011;27537;57.134;-2.136;2023-05-24T10:45:48;3.55;;;1.00;;
41861;SDS011;27537;57.134;-2.136;2023-05-24T10:50:50;11.88;;;2.88;;
41861;SDS011;27537;57.134;-2.136;2023-05-24T10:53:24;12.70;;;2.90;;
41861;SDS011;27537;57.134;-2.136;2023-05-24T10:55:54;8.38;;;2.60;;
41861;SDS011;27537;57.134;-2.136;2023-05-24T10:58:26;14.20;;;3.63;;
41861;SDS011;27537;57.134;-2.136;2023-05-24T11:00:59;13.02;;;3.05;;
41861;SDS011;27537;57.134;-2.136;2023-05-24T11:03:33;11.38;;;3.30;;
41861;SDS011;27537;57.134;-2.136;2023-05-24T11:06:02;14.48;;;4.47;;
41861;SDS011;27537;57.134;-2.136;2023-05-24T11:08:33;14.52;;;3.85;;
41861;SDS011;27537;57.134;-2.136;2023-05-24T11:13:40;18.13;;;4.50;;
41861;SDS011;27537;57.134;-2.136;2023-05-24T11:16:09;14.02;;;3.78;;
41861;SDS011;27537;57.134;-2.136;2023-05-24T11:19:10;16.20;;;4.80;;
41861;SDS011;27537;57.134;-2.136;2023-05-24T11:21:44;12.60;;;3.70;;
41861;SDS011;27537;57.134;-2.136;2023-05-24T11:24:16;14.87;;;4.30;;
41861;SDS011;27537;57.134;-2.136;2023-05-24T11:26:44;15.85;;;4.38;;
41861;SDS011;27537;57.134;-2.136;2023-05-24T11:29:13;14.82;;;4.10;;
41861;SDS011;27537;57.134;-2.136;2023-05-24T11:31:52;15.63;;;4.32;;
41861;SDS011;27537;57.134;-2.136;2023-05-24T11:34:24;12.75;;;4.07;;
41861;SDS011;27537;57.134;-2.136;2023-05-24T11:36:53;17.45;;;3.83;;
41861;SDS011;27537;57.134;-2.136;2023-05-24T11:39:21;24.27;;;4.20;;
41861;SDS011;27537;57.134;-2.136;2023-05-24T11:41:49;15.65;;;4.07;;
41861;SDS011;27537;57.134;-2.136;2023-05-24T11:44:16;12.38;;;3.50;;
41861;SDS011;27537;57.134;-2.136;2023-05-24T11:46:47;14.60;;;3.47;;
41861;SDS011;27537;57.134;-2.136;2023-05-24T11:49:14;12.88;;;3.53;;
41861;SDS011;27537;57.134;-2.136;2023-05-24T11:51:42;12.13;;;4.20;;
41861;SDS011;27537;57.134;-2.136;2023-05-24T11:54:09;13.70;;;3.78;;
41861;SDS011;27537;57.134;-2.136;2023-05-24T11:56:37;12.10;;;3.30;;
41861;SDS011;27537;57.134;-2.136;2023-05-24T11:59:14;10.32;;;3.58;;
41861;SDS011;27537;57.134;-2.136;2023-05-24T12:01:42;13.15;;;3.85;;
41861;SDS011;27537;57.134;-2.136;2023-05-24T12:04:09;15.65;;;4.10;;
41861;SDS011;27537;57.134;-2.136;2023-05-24T12:06:41;11.82;;;3.83;;
41861;SDS011;27537;57.134;-2.136;2023-05-24T12:09:11;12.57;;;3.45;;
41861;SDS011;27537;57.134;-2.136;2023-05-24T12:11:40;11.10;;;3.30;;
41861;SDS011;27537;57.134;-2.136;2023-05-24T12:14:13;15.52;;;3.45;;
41861;SDS011;27537;57.134;-2.136;2023-05-24T12:16:53;12.63;;;3.63;;
41861;SDS011;27537;57.134;-2.136;2023-05-24T12:19:22;13.30;;;3.78;;
41861;SDS011;27537;57.134;-2.136;2023-05-24T12:22:00;16.58;;;3.72;;
41861;SDS011;27537;57.134;-2.136;2023-05-24T12:24:31;12.70;;;3.92;;
41861;SDS011;27537;57.134;-2.136;2023-05-24T12:26:58;11.50;;;3.70;;
41861;SDS011;27537;57.134;-2.136;2023-05-24T12:29:37;14.25;;;3.30;;
41861;SDS011;27537;57.134;-2.136;2023-05-24T12:32:07;11.85;;;3.00;;
41861;SDS011;27537;57.134;-2.136;2023-05-24T12:37:10;13.23;;;3.35;;
41861;SDS011;27537;57.134;-2.136;2023-05-24T12:39:42;11.18;;;3.30;;
41861;SDS011;27537;57.134;-2.136;2023-05-24T12:42:10;14.02;;;3.58;;
41861;SDS011;27537;57.134;-2.136;2023-05-24T12:44:40;15.38;;;3.42;;
41861;SDS011;27537;57.134;-2.136;2023-05-24T12:47:08;10.85;;;2.95;;
41861;SDS011;27537;57.134;-2.136;2023-05-24T12:49:36;11.73;;;3.30;;
41861;SDS011;27537;57.134;-2.136;2023-05-24T12:52:05;11.50;;;2.70;;
41861;SDS011;27537;57.134;-2.136;2023-05-24T12:54:33;10.25;;;2.72;;
41861;SDS011;27537;57.134;-2.136;2023-05-24T12:56:59;12.77;;;3.60;;
41861;SDS011;27537;57.134;-2.136;2023-05-24T12:59:28;10.95;;;3.17;;
41861;SDS011;27537;57.134;-2.136;2023-05-24T13:01:55;13.73;;;3.67;;
41861;SDS011;27537;57.134;-2.136;2023-05-24T13:04:22;14.93;;;4.07;;
41861;SDS011;27537;57.134;-2.136;2023-05-24T13:06:53;16.80;;;4.10;;
41861;SDS011;27537;57.134;-2.136;2023-05-24T13:09:20;13.95;;;3.75;;
41861;SDS011;27537;57.134;-2.136;2023-05-24T13:11:49;13.65;;;3.03;;
41861;SDS011;27537;57.134;-2.136;2023-05-24T13:14:18;12.73;;;3.72;;
41861;SDS011;27537;57.134;-2.136;2023-05-24T13:16:45;13.93;;;3.60;;
41861;SDS011;27537;57.134;-2.136;2023-05-24T13:19:13;13.73;;;4.10;;
41861;SDS011;27537;57.134;-2.136;2023-05-24T13:21:40;12.18;;;3.38;;
41861;SDS011;27537;57.134;-2.136;2023-05-24T13:24:10;12.82;;;3.47;;
41861;SDS011;27537;57.134;-2.136;2023-05-24T13:26:42;13.25;;;3.75;;
41861;SDS011;27537;57.134;-2.136;2023-05-24T13:29:09;11.98;;;3.55;;
41861;SDS011;27537;57.134;-2.136;2023-05-24T13:31:41;20.15;;;4.00;;
41861;SDS011;27537;57.134;-2.136;2023-05-24T13:34:08;11.13;;;3.20;;
41861;SDS011;27537;57.134;-2.136;2023-05-24T13:36:36;12.45;;;3.30;;
41861;SDS011;27537;57.134;-2.136;2023-05-24T13:39:04;15.05;;;4.30;;
41861;SDS011;27537;57.134;-2.136;2023-05-24T13:41:36;12.45;;;3.60;;
41861;SDS011;27537;57.134;-2.136;2023-05-24T13:44:03;14.15;;;3.60;;
41861;SDS011;27537;57.134;-2.136;2023-05-24T13:46:30;15.55;;;3.95;;
41861;SDS011;27537;57.134;-2.136;2023-05-24T13:48:58;15.60;;;3.72;;
41861;SDS011;27537;57.134;-2.136;2023-05-24T13:51:27;17.55;;;3.55;;
41861;SDS011;27537;57.134;-2.136;2023-05-24T13:53:56;18.33;;;4.70;;
41861;SDS011;27537;57.134;-2.136;2023-05-24T13:56:26;18.00;;;3.97;;
41861;SDS011;27537;57.134;-2.136;2023-05-24T13:59:03;16.98;;;4.35;;
41861;SDS011;27537;57.134;-2.136;2023-05-24T14:01:32;14.20;;;3.78;;
41861;SDS011;27537;57.134;-2.136;2023-05-24T14:04:01;17.98;;;4.55;;
41861;SDS011;27537;57.134;-2.136;2023-05-24T14:06:29;19.55;;;4.43;;
41861;SDS011;27537;57.134;-2.136;2023-05-24T14:08:56;13.00;;;3.47;;
41861;SDS011;27537;57.134;-2.136;2023-05-24T14:11:24;10.05;;;3.13;;
41861;SDS011;27537;57.134;-2.136;2023-05-24T14:13:58;19.02;;;3.90;;
41861;SDS011;27537;57.134;-2.136;2023-05-24T14:19:00;23.60;;;4.78;;
41861;SDS011;27537;57.134;-2.136;2023-05-24T14:21:27;19.95;;;4.07;;
41861;SDS011;27537;57.134;-2.136;2023-05-24T14:23:54;15.23;;;4.43;;
41861;SDS011;27537;57.134;-2.136;2023-05-24T14:26:21;14.57;;;3.72;;
41861;SDS011;27537;57.134;-2.136;2023-05-24T14:28:49;19.70;;;3.97;;
41861;SDS011;27537;57.134;-2.136;2023-05-24T14:31:21;11.02;;;2.67;;
41861;SDS011;27537;57.134;-2.136;2023-05-24T14:33:48;11.80;;;2.90;;
41861;SDS011;27537;57.134;-2.136;2023-05-24T14:36:16;13.43;;;3.00;;
41861;SDS011;27537;57.134;-2.136;2023-05-24T14:38:44;13.88;;;3.72;;
41861;SDS011;27537;57.134;-2.136;2023-05-24T14:41:12;16.67;;;4.15;;
41861;SDS011;27537;57.134;-2.136;2023-05-24T14:43:41;16.65;;;3.65;;
41861;SDS011;27537;57.134;-2.136;2023-05-24T14:46:08;14.90;;;3.30;;
41861;SDS011;27537;57.134;-2.136;2023-05-24T14:48:36;13.32;;;3.85;;
41861;SDS011;27537;57.134;-2.136;2023-05-24T14:51:07;17.67;;;3.85;;
41861;SDS011;27537;57.134;-2.136;2023-05-24T14:53:35;16.60;;;3.45;;
41861;SDS011;27537;57.134;-2.136;2023-05-24T14:56:02;20.90;;;4.18;;
41861;SDS011;27537;57.134;-2.136;2023-05-24T14:58:31;12.55;;;2.72;;
41861;SDS011;27537;57.134;-2.136;2023-05-24T15:00:58;19.65;;;3.72;;
41861;SDS011;27537;57.134;-2.136;2023-05-24T15:03:25;15.73;;;3.67;;
41861;SDS011;27537;57.134;-2.136;2023-05-24T15:05:54;13.45;;;3.45;;
41861;SDS011;27537;57.134;-2.136;2023-05-24T15:08:25;16.42;;;3.53;;